Terminal Aerodrome Forecast
Issued by NWS

Home | Current Version | Previous Version | Text Only | Print | Product List | Glossary On
Versions: 1 2 3 4 5 6 7 8 9 10 11 12 13 14 15 16
000
FTUS43 KIND 260700 AAA
TAFHUF
TAF AMD
KHUF 260712Z 2607/2706 04011KT P6SM BKN045 OVC070
     FM260800 04011KT P6SM BKN045 OVC080
     FM261100 03011KT P6SM SCT040 SCT080 BKN250
     FM261600 02013KT P6SM SCT040 SCT250
     FM270200 36008KT P6SM SCT040=

USA.gov is the U.S. government's official web portal to all federal, state and local government web resources and services.